This is the latest recevied weather packets stored in our database for station/object SM6VFJ-1. If no packets are shown the sender has not sent any weather packets the latest 10 day(s).
| Time | Temp. | Humidity | Pressure | Rain* | Wind** | Luminosity | Snow |
|---|---|---|---|---|---|---|---|
| 1777686321 | 10° C | 68% | 1019 hPa | 0 mm | - | 0 W/m² | - |
| 1777682711 | 10.56° C | 65% | 1019.5 hPa | 0 mm | - | 0 W/m² | - |
| 1777681810 | 10.56° C | 64% | 1019.6 hPa | 0 mm | - | 0 W/m² | - |
| 1777680906 | 11.11° C | 63% | 1019.6 hPa | 0 mm | - | 0 W/m² | - |
| 1777677358 | 11.11° C | 62% | 1020.3 hPa | 0 mm | - | 0 W/m² | - |
| 1777670154 | 12.22° C | 60% | 1021.1 hPa | 0 mm | - | 0 W/m² | - |
| 1777667454 | 13.33° C | 57% | 1021.4 hPa | 0 mm | - | 0 W/m² | - |
| 1777654837 | 18.89° C | 37% | 1021.7 hPa | 0 mm | - | 149 W/m² | - |
| 1777652130 | 20° C | 34% | 1022 hPa | 0 mm | - | 265 W/m² | - |
| 1777645823 | 21.67° C | 32% | 1022.7 hPa | 0 mm | - | 482 W/m² | - |
| 1777644020 | 22.22° C | 32% | 1022.8 hPa | 0 mm | - | 550 W/m² | - |
| 1777641317 | 22.22° C | 30% | 1023 hPa | 0 mm | - | 628 W/m² | - |
| 1777635911 | 21.67° C | 34% | 1023.5 hPa | 0 mm | - | 724 W/m² | - |
| 1777629658 | 19.44° C | 40% | 1024 hPa | 0 mm | - | 710 W/m² | - |
| 1777626944 | 18.33° C | 47% | 1024.3 hPa | 0 mm | - | 671 W/m² | - |
| 1777621533 | 15° C | 64% | 1024.6 hPa | 0 mm | - | 517 W/m² | - |
| 1777615260 | 9.44° C | 80% | 1024.5 hPa | 0 mm | - | 281 W/m² | - |
| 1777614351 | 8.89° C | 80% | 1024.5 hPa | 0 mm | - | 213 W/m² | - |
| 1777605315 | 7.22° C | 82% | 1024.8 hPa | 0 mm | - | 5 W/m² | - |
| 1777602617 | 7.22° C | 82% | 1025.2 hPa | 0 mm | - | 0 W/m² | - |
| 1777600804 | 7.22° C | 82% | 1025.4 hPa | 0 mm | - | 0 W/m² | - |
| 1777596353 | 7.78° C | 79% | 1025.6 hPa | 0 mm | - | 0 W/m² | - |
| 1777592754 | 9.44° C | 76% | 1026 hPa | 0 mm | - | 0 W/m² | - |
| 1777590033 | 10° C | 72% | 1026.1 hPa | 0 mm | - | 0 W/m² | - |
| 1777576528 | 16.67° C | 58% | 1026.2 hPa | 0 mm | - | 0 W/m² | - |
* Rain latest hour (hover to see other rain measurements)
** Current wind speed in m/s (hover to see current wind gust speed)